ENQA

Troll A Platform Heliport

Norway
METAR ENQA 180650Z AUTO 25013KT 9999NDV FEW017/// BKN064/// 04/01 Q1016 W03/S5
Observed Flight Rules
Feb-18 @ 06:50 UTC (24 minutes ago)
Wind Clouds
250° at 13 knots
  • Few at 1,700' AGL
  • Broken at 6,400' AGL
Temperatures Readings
Current 4°C / 39°F
Dewpoint 1°C / 34°F
Humidity 81%
Altimeter 30" Hg
Pressure 1016 hPa
Elevation 20
METAR ENQA 180650Z AUTO 25013KT 9999NDV FEW017/// BKN064/// 04/01 Q1016 W03/S5
Observed Flight Rules
Feb-18 @ 06:50 UTC
(24 minutes ago)
Wind
250° at 13 knots
Clouds
  • Few at 1,700' AGL
  • Broken at 6,400' AGL
Temperature Dewpoint
4°C / 39°F 1°C / 34°F
Humidity Altimeter Pressure
81% 30" Hg 1016 hPa